Time;durP1;ratioP1;P1;durP2;ratioP2;P2;SDS_P1;SDS_P2;PMS_P1;PMS_P2;Temp;Humidity;BMP_temperature;BMP_pressure;BME280_temperature;BME280_humidity;BME280_pressure;Samples;Min_cycle;Max_cycle;Signal;HPM_P1;HPM_P2
2022/11/25 00:00:15;;;;;;;19.50;10.30;;;;;;;2.78;100.00;98092.47;5051376;28;20209;-77
2022/11/25 00:02:45;;;;;;;17.63;9.93;;;;;;;2.82;100.00;98088.78;5051159;28;20234;-77
2022/11/25 00:05:11;;;;;;;18.70;9.83;;;;;;;2.87;100.00;98086.03;5051616;28;20627;-76
2022/11/25 00:07:38;;;;;;;15.93;9.40;;;;;;;2.83;100.00;98085.31;5065025;22;20245;-82
2022/11/25 00:10:06;;;;;;;14.80;8.90;;;;;;;2.80;100.00;98082.81;5051648;28;20618;-82
2022/11/25 00:12:33;;;;;;;21.87;10.37;;;;;;;2.83;100.00;98081.84;5051491;28;20285;-82
2022/11/25 00:14:59;;;;;;;13.93;8.67;;;;;;;2.74;100.00;98074.34;5051466;28;20603;-82
2022/11/25 00:17:27;;;;;;;18.53;9.83;;;;;;;2.68;100.00;98082.41;5053282;28;20236;-82
2022/11/25 00:19:54;;;;;;;15.87;10.23;;;;;;;2.69;100.00;98077.16;5054992;28;20209;-82
2022/11/25 00:22:20;;;;;;;17.83;10.20;;;;;;;2.66;100.00;98082.50;5054803;28;20756;-82
2022/11/25 00:24:47;;;;;;;15.80;10.13;;;;;;;2.63;100.00;98081.75;5054828;28;20211;-82
2022/11/25 00:27:13;;;;;;;16.53;9.20;;;;;;;2.66;100.00;98077.28;5054389;28;20250;-82
2022/11/25 00:29:40;;;;;;;17.80;10.13;;;;;;;2.60;100.00;98077.50;5054920;28;20205;-82
2022/11/25 00:32:06;;;;;;;16.17;9.27;;;;;;;2.59;100.00;98075.81;5054701;28;20204;-82
2022/11/25 00:34:34;;;;;;;14.70;8.73;;;;;;;2.53;100.00;98073.44;5054590;28;20702;-82
2022/11/25 00:37:00;;;;;;;14.87;8.70;;;;;;;2.50;100.00;98070.94;5054575;28;20231;-82
2022/11/25 00:39:27;;;;;;;17.87;9.87;;;;;;;2.53;100.00;98083.00;5054684;28;20208;-82
2022/11/25 00:44:39;;;;;;;16.93;9.73;;;;;;;2.41;100.00;98081.75;5054836;28;20279;-82
2022/11/25 00:47:08;;;;;;;17.27;9.10;;;;;;;2.39;100.00;98078.31;5054021;28;20727;-82
2022/11/25 00:49:36;;;;;;;18.33;9.93;;;;;;;2.45;100.00;98082.47;5054247;28;20728;-82
2022/11/25 00:52:03;;;;;;;18.37;9.97;;;;;;;2.44;100.00;98076.38;5054113;28;20210;-89
2022/11/25 00:54:30;;;;;;;16.13;9.20;;;;;;;2.41;100.00;98076.53;5054447;28;20494;-82
2022/11/25 00:56:57;;;;;;;18.83;10.50;;;;;;;2.43;100.00;98087.75;5054089;28;20228;-83
2022/11/25 00:59:24;;;;;;;17.53;9.60;;;;;;;2.44;100.00;98086.81;5054167;28;20213;-83
2022/11/25 01:01:51;;;;;;;18.93;10.90;;;;;;;2.47;100.00;98091.06;5053934;28;20210;-83
2022/11/25 01:04:17;;;;;;;16.27;9.60;;;;;;;2.50;100.00;98083.97;5054055;28;20206;-83
2022/11/25 01:06:45;;;;;;;20.27;10.33;;;;;;;2.56;100.00;98085.53;5053752;28;20249;-83
2022/11/25 01:09:12;;;;;;;19.83;10.53;;;;;;;2.62;100.00;98091.34;5053933;28;20210;-83
2022/11/25 01:11:39;;;;;;;19.87;10.40;;;;;;;2.66;100.00;98087.72;5053813;28;20225;-83
2022/11/25 01:14:06;;;;;;;16.47;10.67;;;;;;;2.68;100.00;98101.53;5053831;28;20231;-83
2022/11/25 01:16:33;;;;;;;17.87;10.33;;;;;;;2.74;100.00;98095.22;5053500;28;20739;-83
2022/11/25 01:19:00;;;;;;;15.20;10.13;;;;;;;2.74;100.00;98085.66;5053971;28;20321;-83
2022/11/25 01:21:28;;;;;;;15.47;10.43;;;;;;;2.80;100.00;98090.63;5053975;28;20223;-83
2022/11/25 01:23:58;;;;;;;19.10;10.83;;;;;;;2.85;100.00;98087.84;5053492;28;20233;-83
2022/11/25 01:26:25;;;;;;;16.10;9.07;;;;;;;2.86;100.00;98086.91;5053295;28;20237;-83
2022/11/25 01:28:55;;;;;;;14.30;9.30;;;;;;;2.78;100.00;98076.81;5052376;28;20237;-82
2022/11/25 01:31:24;;;;;;;15.20;10.77;;;;;;;2.78;100.00;98073.31;5053862;28;20310;-83
2022/11/25 01:33:54;;;;;;;17.53;9.97;;;;;;;2.78;100.00;98076.81;5053708;28;20670;-83
2022/11/25 01:36:21;;;;;;;14.43;9.30;;;;;;;2.71;100.00;98080.56;5053721;28;20233;-83
2022/11/25 01:38:51;;;;;;;12.90;9.00;;;;;;;2.71;100.00;98075.34;5053714;28;20301;-83
2022/11/25 01:41:19;;;;;;;17.80;9.50;;;;;;;2.75;100.00;98081.28;5053427;28;20589;-83
2022/11/25 01:44:08;;;;;;;16.17;9.63;;;;;;;2.78;100.00;98086.38;5053157;28;20238;-83
2022/11/25 01:46:51;;;;;;;17.87;9.33;;;;;;;2.88;100.00;98083.34;5053297;28;20228;-83
2022/11/25 01:49:22;;;;;;;16.33;9.63;;;;;;;2.94;100.00;98077.88;5053363;28;20695;-82
2022/11/25 01:51:53;;;;;;;19.60;10.23;;;;;;;3.04;100.00;98081.81;5053292;28;20648;-82
2022/11/25 01:54:24;;;;;;;20.00;9.90;;;;;;;3.14;100.00;98080.56;5053393;28;20197;-82
2022/11/25 01:56:55;;;;;;;15.00;9.37;;;;;;;3.16;100.00;98086.56;5052971;28;20258;-82
2022/11/25 01:59:22;;;;;;;16.53;9.00;;;;;;;3.27;100.00;98080.88;5053195;28;20217;-83
2022/11/25 02:01:49;;;;;;;14.53;9.43;;;;;;;3.31;100.00;98075.47;5053120;28;20210;-83
2022/11/25 02:04:19;;;;;;;14.37;9.50;;;;;;;3.31;100.00;98078.06;5052983;28;20338;-82
2022/11/25 02:06:52;;;;;;;14.73;8.13;;;;;;;3.36;100.00;98089.19;5052742;28;20244;-82
2022/11/25 02:09:21;;;;;;;14.97;8.30;;;;;;;3.37;100.00;98093.50;5053400;28;20542;-83
2022/11/25 02:11:49;;;;;;;18.67;9.93;;;;;;;3.38;100.00;98094.34;5053308;28;20227;-83
2022/11/25 02:14:19;;;;;;;16.43;9.30;;;;;;;3.37;100.00;98088.28;5054006;28;20214;-82
2022/11/25 02:16:46;;;;;;;15.23;8.50;;;;;;;3.32;100.00;98090.25;5064339;28;20234;-82
2022/11/25 02:19:20;;;;;;;12.83;8.80;;;;;;;3.30;100.00;98091.22;5064798;28;20208;-83
2022/11/25 02:21:52;;;;;;;13.80;9.13;;;;;;;3.25;100.00;98099.22;5063658;28;20212;-82
2022/11/25 02:24:27;;;;;;;12.30;7.50;;;;;;;3.19;100.00;98096.84;5065514;28;20234;-81
2022/11/25 02:26:55;;;;;;;13.60;7.90;;;;;;;3.13;100.00;98099.72;5065272;28;20236;-83
2022/11/25 02:29:22;;;;;;;14.83;8.87;;;;;;;3.06;100.00;98087.00;5063594;28;20216;-83
2022/11/25 02:31:49;;;;;;;16.70;9.37;;;;;;;3.05;100.00;98090.53;5052500;28;20219;-83
2022/11/25 02:34:15;;;;;;;14.93;8.57;;;;;;;2.97;100.00;98088.22;5052429;28;20209;-82
2022/11/25 02:36:42;;;;;;;14.70;8.57;;;;;;;2.92;100.00;98084.06;5051632;28;20244;-82
2022/11/25 02:39:09;;;;;;;14.70;9.63;;;;;;;2.86;100.00;98085.16;5052046;28;20236;-83
2022/11/25 02:41:40;;;;;;;14.67;9.00;;;;;;;2.86;100.00;98089.53;5052150;28;20267;-82
2022/11/25 02:44:08;;;;;;;15.37;8.20;;;;;;;2.85;100.00;98088.69;5052019;28;20313;-83
2022/11/25 02:46:34;;;;;;;15.13;9.43;;;;;;;2.83;100.00;98084.44;5051848;28;20229;-83
2022/11/25 02:49:01;;;;;;;11.30;8.13;;;;;;;2.84;100.00;98091.34;5052212;28;20216;-82
2022/11/25 02:51:30;;;;;;;12.93;8.70;;;;;;;2.86;100.00;98079.09;5052088;28;20225;-83
2022/11/25 02:53:56;;;;;;;15.30;9.00;;;;;;;2.85;100.00;98088.69;5052380;28;20209;-83
2022/11/25 02:56:25;;;;;;;14.10;8.67;;;;;;;2.91;100.00;98080.63;5051650;28;20229;-83
2022/11/25 02:58:51;;;;;;;13.67;7.83;;;;;;;2.86;100.00;98074.72;5051879;28;20213;-83
2022/11/25 03:01:19;;;;;;;14.70;8.10;;;;;;;2.85;100.00;98078.25;5051972;28;20241;-83
2022/11/25 03:03:46;;;;;;;10.83;7.80;;;;;;;2.85;100.00;98067.81;5051968;28;20229;-83
2022/11/25 03:06:13;;;;;;;15.90;10.13;;;;;;;2.88;100.00;98072.91;5051540;28;20589;-83
2022/11/25 03:08:39;;;;;;;14.73;8.47;;;;;;;2.88;100.00;98067.69;5051917;28;20223;-83
2022/11/25 03:11:06;;;;;;;15.03;8.43;;;;;;;2.90;100.00;98063.25;5051632;28;20204;-83
2022/11/25 03:13:32;;;;;;;12.33;8.13;;;;;;;2.90;100.00;98059.78;5051890;28;20208;-82
2022/11/25 03:15:59;;;;;;;11.17;7.87;;;;;;;2.92;100.00;98071.00;5051623;28;20610;-82
2022/11/25 03:18:27;;;;;;;12.30;8.13;;;;;;;2.89;100.00;98064.16;5051284;28;20208;-83
2022/11/25 03:20:55;;;;;;;14.53;8.53;;;;;;;2.92;100.00;98064.03;5051767;28;20204;-83
2022/11/25 03:23:22;;;;;;;15.87;8.50;;;;;;;2.92;100.00;98061.44;5052057;28;20232;-83
2022/11/25 03:25:48;;;;;;;12.20;7.43;;;;;;;2.88;100.00;98062.47;5051173;28;20654;-82
2022/11/25 03:28:15;;;;;;;14.20;8.30;;;;;;;2.80;100.00;98059.31;5051733;28;20298;-83
2022/11/25 03:30:43;;;;;;;17.47;8.97;;;;;;;2.76;100.00;98049.91;5051632;28;20580;-83
2022/11/25 03:33:09;;;;;;;13.10;8.17;;;;;;;2.69;100.00;98051.06;5051536;28;20228;-83
2022/11/25 03:35:37;;;;;;;13.27;9.60;;;;;;;2.63;100.00;98056.50;5051507;28;20216;-83
2022/11/25 03:38:04;;;;;;;13.93;8.40;;;;;;;2.60;100.00;98047.94;5051152;28;20227;-83
2022/11/25 03:40:30;;;;;;;14.30;8.87;;;;;;;2.54;100.00;98051.66;5051359;28;20205;-83
2022/11/25 03:42:57;;;;;;;14.10;8.60;;;;;;;2.52;100.00;98058.69;5051403;28;20239;-83
2022/11/25 03:45:23;;;;;;;14.07;8.80;;;;;;;2.49;100.00;98055.34;5051335;28;20209;-83
2022/11/25 03:47:50;;;;;;;15.80;9.40;;;;;;;2.50;100.00;98054.47;5050840;28;20228;-83
2022/11/25 03:50:16;;;;;;;13.13;8.47;;;;;;;2.52;100.00;98053.47;5051412;28;20219;-83
2022/11/25 03:52:44;;;;;;;14.23;8.83;;;;;;;2.52;100.00;98053.47;5054073;28;20219;-83
2022/11/25 03:55:11;;;;;;;14.90;9.57;;;;;;;2.52;100.00;98050.84;5055113;28;20213;-83
2022/11/25 03:57:38;;;;;;;15.33;9.23;;;;;;;2.52;100.00;98056.06;5055234;28;20646;-83
2022/11/25 04:00:06;;;;;;;15.87;9.27;;;;;;;2.47;100.00;98060.63;5055496;28;20236;-83
2022/11/25 04:02:33;;;;;;;12.87;9.53;;;;;;;2.47;100.00;98060.63;5055219;28;20710;-83
2022/11/25 04:04:59;;;;;;;13.40;9.10;;;;;;;2.44;100.00;98060.75;5055347;28;20212;-83
2022/11/25 04:07:26;;;;;;;14.90;9.50;;;;;;;2.47;100.00;98054.56;5054926;28;20239;-83
2022/11/25 04:09:54;;;;;;;12.83;8.93;;;;;;;2.44;100.00;98063.34;5055465;28;20231;-83
2022/11/25 04:15:05;;;;;;;16.10;10.30;;;;;;;2.54;100.00;98056.88;5055173;28;20324;-84
2022/11/25 04:17:31;;;;;;;14.97;8.57;;;;;;;2.55;100.00;98053.34;5054648;28;20228;-84
2022/11/25 04:19:58;;;;;;;16.07;9.40;;;;;;;2.60;100.00;98051.44;5054831;28;20244;-84
2022/11/25 04:22:25;;;;;;;15.27;8.80;;;;;;;2.62;100.00;98059.16;5055164;28;20212;-84
2022/11/25 04:24:51;;;;;;;17.80;9.37;;;;;;;2.58;100.00;98053.22;5054898;28;20230;-87
2022/11/25 04:27:19;;;;;;;14.03;9.20;;;;;;;2.58;100.00;98053.22;5054542;28;20228;-83
2022/11/25 04:29:45;;;;;;;13.83;9.37;;;;;;;2.59;100.00;98044.50;5054653;28;20212;-83
2022/11/25 04:32:12;;;;;;;13.57;9.93;;;;;;;2.67;100.00;98042.44;5054703;28;20589;-83
2022/11/25 04:34:38;;;;;;;19.57;10.17;;;;;;;2.64;100.00;98039.94;5054624;28;20201;-80
2022/11/25 04:37:05;;;;;;;17.10;10.43;;;;;;;2.70;100.00;98047.53;5054183;28;20229;-80
2022/11/25 04:39:32;;;;;;;15.30;9.63;;;;;;;2.75;100.00;98048.19;5054618;28;20283;-83
2022/11/25 04:44:40;;;;;;;17.43;10.70;;;;;;;2.78;100.00;98040.25;5054149;28;20308;-83
2022/11/25 04:47:06;;;;;;;18.43;10.07;;;;;;;2.82;100.00;98036.59;5054004;28;20228;-83
2022/11/25 04:49:33;;;;;;;15.40;10.10;;;;;;;2.88;100.00;98043.34;5054325;28;20209;-83
2022/11/25 04:51:59;;;;;;;13.90;9.00;;;;;;;2.89;100.00;98040.66;5054514;28;20214;-83
2022/11/25 04:54:26;;;;;;;14.27;10.60;;;;;;;2.86;100.00;98035.56;5054654;28;20215;-83
2022/11/25 04:56:52;;;;;;;15.50;9.80;;;;;;;2.89;100.00;98043.28;5053903;28;20232;-83
2022/11/25 04:59:40;;;;;;;14.37;10.30;;;;;;;2.90;100.00;98033.69;5054121;28;20212;-83
2022/11/25 05:02:13;;;;;;;14.67;9.67;;;;;;;2.94;100.00;98043.94;5054510;28;20212;-83
2022/11/25 05:04:39;;;;;;;15.97;8.83;;;;;;;2.98;100.00;98044.66;5054079;28;20239;-83
2022/11/25 05:07:06;;;;;;;14.50;9.47;;;;;;;3.03;100.00;98061.00;5053874;28;20600;-83
2022/11/25 05:09:32;;;;;;;14.17;8.90;;;;;;;3.02;100.00;98054.94;5053956;28;20208;-83
2022/11/25 05:11:59;;;;;;;15.30;10.73;;;;;;;3.03;100.00;98058.38;5054017;28;20204;-83
2022/11/25 05:14:25;;;;;;;14.47;9.90;;;;;;;3.00;100.00;98066.34;5053710;28;20207;-83
2022/11/25 05:16:52;;;;;;;14.50;8.93;;;;;;;2.97;100.00;98067.31;5053276;28;20731;-83
2022/11/25 05:19:20;;;;;;;13.40;8.93;;;;;;;2.95;100.00;98065.69;5054047;28;20291;-83
2022/11/25 05:21:46;;;;;;;18.70;10.80;;;;;;;2.94;100.00;98062.22;5053942;28;20224;-83
2022/11/25 05:24:13;;;;;;;12.50;9.47;;;;;;;2.91;100.00;98057.13;5053667;28;20697;-82
2022/11/25 05:26:39;;;;;;;15.33;8.80;;;;;;;2.86;100.00;98050.38;5053318;28;20234;-83
2022/11/25 05:29:06;;;;;;;11.77;8.13;;;;;;;2.79;100.00;98052.41;5053545;28;20213;-83
2022/11/25 05:31:32;;;;;;;11.20;8.03;;;;;;;2.75;100.00;98056.03;5053752;28;20238;-83
2022/11/25 05:34:01;;;;;;;13.97;9.20;;;;;;;2.74;100.00;98063.91;5053277;28;20685;-83
2022/11/25 05:36:29;;;;;;;16.50;7.97;;;;;;;2.68;100.00;98066.75;5053168;28;20250;-83
2022/11/25 05:38:56;;;;;;;10.83;7.90;;;;;;;2.58;100.00;98070.66;5053378;28;20205;-83
2022/11/25 05:41:24;;;;;;;15.90;8.30;;;;;;;2.52;100.00;98074.31;5053225;28;20214;-83
2022/11/25 05:43:51;;;;;;;12.17;7.67;;;;;;;2.47;100.00;98070.22;5053410;28;20247;-83
2022/11/25 05:46:17;;;;;;;20.47;8.97;;;;;;;2.43;100.00;98076.44;5052881;28;20322;-83
2022/11/25 05:48:44;;;;;;;13.40;8.20;;;;;;;2.44;100.00;98076.38;5053250;28;20212;-83
2022/11/25 05:51:10;;;;;;;17.63;8.87;;;;;;;2.47;100.00;98085.84;5053443;28;20235;-83
2022/11/25 05:53:38;;;;;;;14.73;8.37;;;;;;;2.43;100.00;98082.53;5053223;28;20680;-83
2022/11/25 05:56:06;;;;;;;13.37;7.50;;;;;;;2.44;100.00;98092.03;5052666;28;20723;-83
2022/11/25 05:58:33;;;;;;;12.33;8.43;;;;;;;2.49;100.00;98084.91;5053075;28;20209;-83
2022/11/25 06:00:59;;;;;;;15.07;8.50;;;;;;;2.44;100.00;98086.81;5053296;28;20203;-83
2022/11/25 06:03:27;;;;;;;11.53;8.20;;;;;;;2.50;100.00;98091.81;5052988;28;20235;-83
2022/11/25 06:05:55;;;;;;;15.37;8.80;;;;;;;2.50;100.00;98097.03;5052539;28;20507;-80
2022/11/25 06:08:22;;;;;;;14.80;8.93;;;;;;;2.53;100.00;98098.66;5049637;22;20249;-85
2022/11/25 06:10:50;;;;;;;13.20;7.83;;;;;;;2.54;100.00;98106.44;5033222;28;20217;-84
2022/11/25 06:13:16;;;;;;;15.47;9.00;;;;;;;2.53;100.00;98102.16;5032873;28;20211;-84
2022/11/25 06:15:44;;;;;;;12.33;8.70;;;;;;;2.49;100.00;98110.97;5032084;28;20204;-84
2022/11/25 06:18:12;;;;;;;12.77;9.10;;;;;;;2.42;100.00;98109.50;5032494;28;20229;-85
2022/11/25 06:20:39;;;;;;;13.40;8.40;;;;;;;2.39;100.00;98099.19;5033054;28;20352;-84
2022/11/25 06:23:06;;;;;;;15.60;9.30;;;;;;;2.31;100.00;98106.44;5032681;28;20211;-84
2022/11/25 06:25:33;;;;;;;16.00;8.83;;;;;;;2.25;100.00;98111.88;5032549;28;20212;-84
2022/11/25 06:28:02;;;;;;;15.17;8.07;;;;;;;2.21;100.00;98112.06;5032086;28;20723;-84
2022/11/25 06:30:29;;;;;;;13.23;8.33;;;;;;;2.16;100.00;98109.63;5032297;28;20215;-84
2022/11/25 06:32:56;;;;;;;17.13;8.97;;;;;;;2.11;100.00;98114.16;5032594;28;20235;-84
2022/11/25 06:35:22;;;;;;;11.10;8.53;;;;;;;2.08;100.00;98119.47;5032148;28;20211;-84
2022/11/25 06:37:48;;;;;;;12.27;7.90;;;;;;;2.04;100.00;98122.25;5032083;28;20236;-84
2022/11/25 06:40:15;;;;;;;15.77;9.73;;;;;;;2.06;100.00;98126.50;5032320;28;20553;-84
2022/11/25 06:42:42;;;;;;;14.90;8.43;;;;;;;2.05;100.00;98116.97;5032181;28;20208;-84
2022/11/25 06:45:11;;;;;;;15.00;8.90;;;;;;;2.02;100.00;98113.63;5032102;28;20233;-84
2022/11/25 06:47:37;;;;;;;14.37;8.40;;;;;;;1.98;100.00;98128.53;5031803;28;20233;-85
2022/11/25 06:50:05;;;;;;;15.13;8.90;;;;;;;1.98;100.00;98128.53;5031852;28;20219;-85
2022/11/25 06:52:32;;;;;;;13.07;8.70;;;;;;;1.94;100.00;98132.16;5031872;28;20216;-84
2022/11/25 06:54:58;;;;;;;14.80;8.43;;;;;;;1.93;100.00;98124.38;5032064;28;20205;-84
2022/11/25 06:57:25;;;;;;;13.60;9.03;;;;;;;1.92;100.00;98133.97;5031457;28;20228;-84
2022/11/25 06:59:51;;;;;;;13.37;9.50;;;;;;;1.89;100.00;98136.66;5031901;28;20214;-85
2022/11/25 07:02:19;;;;;;;14.20;10.03;;;;;;;1.91;100.00;98134.84;5031761;28;20219;-84
2022/11/25 07:04:46;;;;;;;18.00;10.30;;;;;;;2.05;100.00;98143.06;5031594;28;20228;-84
2022/11/25 07:07:12;;;;;;;22.07;11.00;;;;;;;2.14;100.00;98145.31;5031291;28;20244;-85
2022/11/25 07:09:39;;;;;;;18.60;10.23;;;;;;;2.24;100.00;98151.91;5031878;28;20234;-84
2022/11/25 07:12:06;;;;;;;15.60;11.23;;;;;;;2.35;100.00;98147.16;5031534;28;20220;-85
2022/11/25 07:14:32;;;;;;;14.93;9.70;;;;;;;2.50;100.00;98149.19;5031669;28;20216;-85
2022/11/25 07:16:59;;;;;;;11.83;9.40;;;;;;;2.59;100.00;98154.09;5031207;28;20231;-85
2022/11/25 07:19:32;;;;;;;17.40;10.37;;;;;;;2.66;100.00;98145.13;5031731;28;20622;-85
2022/11/25 07:21:59;;;;;;;15.70;10.20;;;;;;;2.70;100.00;98146.69;5031692;28;20212;-85
2022/11/25 07:24:25;;;;;;;17.77;10.90;;;;;;;2.71;100.00;98137.97;5031416;28;20247;-85
2022/11/25 07:26:52;;;;;;;17.93;11.00;;;;;;;2.74;100.00;98142.19;5030336;28;20738;-85
2022/11/25 07:29:18;;;;;;;19.97;12.27;;;;;;;2.78;100.00;98147.25;5031481;28;20206;-85
2022/11/25 07:31:45;;;;;;;21.10;11.37;;;;;;;2.80;100.00;98148.03;5031416;28;20245;-85
2022/11/25 07:34:14;;;;;;;21.93;11.13;;;;;;;2.85;100.00;98146.09;5031177;28;20215;-85
2022/11/25 07:36:42;;;;;;;18.93;11.50;;;;;;;2.92;100.00;98158.00;5031011;28;20694;-84
2022/11/25 07:39:13;;;;;;;18.57;11.30;;;;;;;2.94;100.00;98156.19;5031358;28;20243;-86
2022/11/25 07:41:40;;;;;;;15.97;9.30;;;;;;;3.04;100.00;98157.53;5031299;28;20283;-83
2022/11/25 07:44:08;;;;;;;18.07;10.30;;;;;;;3.14;100.00;98164.09;5031067;28;20322;-83
2022/11/25 07:46:36;;;;;;;20.20;11.23;;;;;;;3.29;100.00;98173.94;5031253;28;20230;-83
2022/11/25 07:49:05;;;;;;;17.27;11.17;;;;;;;3.38;100.00;98172.72;5031289;28;20208;-83
2022/11/25 07:51:34;;;;;;;16.97;10.60;;;;;;;3.48;100.00;98166.22;5031152;28;20213;-83
2022/11/25 07:54:03;;;;;;;19.17;12.40;;;;;;;3.57;100.00;98166.69;5031195;28;20209;-82
2022/11/25 07:56:30;;;;;;;18.73;10.37;;;;;;;3.61;100.00;98160.41;5030707;28;20631;-84
2022/11/25 07:58:57;;;;;;;18.13;10.87;;;;;;;3.72;100.00;98168.66;5031345;28;20285;-83
2022/11/25 08:01:24;;;;;;;16.63;10.90;;;;;;;3.82;100.00;98174.34;5031285;28;20201;-82
2022/11/25 08:03:51;;;;;;;19.30;10.53;;;;;;;3.89;100.00;98181.88;5031016;28;20239;-82
2022/11/25 08:06:21;;;;;;;20.20;10.57;;;;;;;3.93;100.00;98172.16;5030642;28;20678;-82
2022/11/25 08:08:48;;;;;;;17.60;10.27;;;;;;;3.95;100.00;98176.41;5031140;28;20209;-82
2022/11/25 08:11:18;;;;;;;18.53;9.83;;;;;;;4.02;100.00;98185.69;5030796;28;20212;-82
2022/11/25 08:13:46;;;;;;;14.30;9.27;;;;;;;4.11;100.00;98180.06;5031143;28;20214;-81
2022/11/25 08:16:14;;;;;;;13.40;9.23;;;;;;;4.17;100.00;98198.09;5030519;28;20214;-82
2022/11/25 08:18:41;;;;;;;14.70;9.27;;;;;;;4.20;100.00;98192.75;5030832;28;20214;-82
2022/11/25 08:21:10;;;;;;;15.33;9.57;;;;;;;4.23;100.00;98195.22;5030808;28;20213;-82
2022/11/25 08:23:39;;;;;;;13.23;8.63;;;;;;;4.33;100.00;98191.28;5030776;28;20221;-83
2022/11/25 08:26:08;;;;;;;11.90;7.90;;;;;;;4.38;100.00;98181.47;5030532;28;20230;-82
2022/11/25 08:28:37;;;;;;;13.27;8.27;;;;;;;4.43;100.00;98189.13;5030737;28;20676;-80
2022/11/25 08:31:04;;;;;;;15.20;8.33;;;;;;;4.41;100.00;98176.09;5030859;28;20675;-80
2022/11/25 08:33:30;;;;;;;14.77;8.70;;;;;;;4.41;100.00;98175.28;5030734;28;20222;-80
2022/11/25 08:35:57;;;;;;;13.43;8.30;;;;;;;4.45;100.00;98172.44;5030507;28;20560;-79
2022/11/25 08:38:24;;;;;;;14.37;9.13;;;;;;;4.52;100.00;98168.63;5032540;28;20235;-81
2022/11/25 08:40:51;;;;;;;13.33;8.67;;;;;;;4.55;100.00;98172.88;5034553;28;20218;-81
2022/11/25 08:43:18;;;;;;;14.07;8.07;;;;;;;4.51;100.00;98177.41;5034297;28;20217;-81
2022/11/25 08:45:46;;;;;;;18.60;9.00;;;;;;;4.50;100.00;98186.19;5034194;28;20239;-80
2022/11/25 08:48:13;;;;;;;14.47;9.57;;;;;;;4.51;100.00;98187.88;5034238;28;20226;-80
2022/11/25 08:50:48;;;;;;;13.07;8.20;;;;;;;4.50;100.00;98190.56;5032900;28;20679;-80
2022/11/25 08:53:14;;;;;;;16.60;9.17;;;;;;;4.50;100.00;98180.94;5032447;28;20217;-80
2022/11/25 08:55:41;;;;;;;14.37;8.87;;;;;;;4.50;100.00;98191.41;5033105;28;20225;-81
2022/11/25 08:58:12;;;;;;;16.60;9.07;;;;;;;4.51;100.00;98189.63;5032714;28;20232;-81
2022/11/25 09:00:38;;;;;;;12.07;8.10;;;;;;;4.51;100.00;98195.72;5030785;28;20212;-81
2022/11/25 09:03:07;;;;;;;11.87;8.37;;;;;;;4.51;100.00;98203.56;5025665;28;20202;-81
2022/11/25 09:05:34;;;;;;;12.57;8.13;;;;;;;4.52;100.00;98199.22;5032880;28;20250;-81
2022/11/25 09:08:01;;;;;;;15.27;8.20;;;;;;;4.52;100.00;98199.22;5032812;28;20234;-81
2022/11/25 09:10:28;;;;;;;12.63;8.77;;;;;;;4.49;100.00;98205.41;5033012;28;20212;-81
2022/11/25 09:12:55;;;;;;;14.60;8.13;;;;;;;4.53;100.00;98211.38;5033027;28;20214;-81
2022/11/25 09:15:21;;;;;;;14.93;8.27;;;;;;;4.61;100.00;98212.72;5032840;28;20296;-82
2022/11/25 09:17:48;;;;;;;14.57;9.30;;;;;;;4.75;100.00;98207.72;5031773;28;20234;-82
2022/11/25 09:20:16;;;;;;;14.33;9.13;;;;;;;4.93;100.00;98203.41;5032647;28;20206;-82
2022/11/25 09:22:42;;;;;;;13.33;8.97;;;;;;;5.14;100.00;98213.75;5032526;28;20220;-82
2022/11/25 09:25:09;;;;;;;13.40;8.67;;;;;;;5.31;100.00;98203.34;5032786;28;20230;-82
2022/11/25 09:27:36;;;;;;;13.67;9.73;;;;;;;5.52;100.00;98220.69;5032628;28;20227;-82
2022/11/25 09:30:03;;;;;;;13.67;8.83;;;;;;;5.81;100.00;98230.63;5032841;28;20212;-82
2022/11/25 09:32:30;;;;;;;14.47;8.70;;;;;;;6.04;100.00;98225.09;5032621;28;20266;-82
2022/11/25 09:34:57;;;;;;;13.73;8.47;;;;;;;6.25;100.00;98221.41;5032418;28;20215;-82
2022/11/25 09:37:25;;;;;;;12.33;8.00;;;;;;;6.41;100.00;98227.56;5032392;28;20232;-82
2022/11/25 09:39:54;;;;;;;10.63;7.13;;;;;;;6.48;100.00;98223.69;5032818;28;20212;-82
2022/11/25 09:48:26;;;;;;;12.47;7.57;;;;;;;6.63;100.00;98228.16;5032082;28;20243;-82
2022/11/25 09:51:02;;;;;;;9.47;6.77;;;;;;;6.70;100.00;98224.28;5031496;28;20219;-83
2022/11/25 09:53:42;;;;;;;9.50;6.07;;;;;;;6.67;100.00;98223.59;5032354;28;20226;-82
2022/11/25 09:56:14;;;;;;;10.80;6.67;;;;;;;6.69;100.00;98217.34;5032005;28;20208;-83
2022/11/25 09:58:48;;;;;;;11.30;7.23;;;;;;;6.69;100.00;98219.97;5032356;28;20219;-82
2022/11/25 10:01:19;;;;;;;9.33;6.43;;;;;;;6.73;100.00;98224.13;5030708;28;20205;-85
2022/11/25 10:03:48;;;;;;;8.60;6.07;;;;;;;6.76;100.00;98217.84;5024776;28;20212;-83
2022/11/25 10:06:19;;;;;;;10.30;5.97;;;;;;;6.83;100.00;98220.09;5031776;28;20236;-82
2022/11/25 10:08:50;;;;;;;10.13;6.47;;;;;;;6.93;100.00;98223.94;5032230;28;20209;-83
2022/11/25 10:11:26;;;;;;;9.17;6.13;;;;;;;7.05;100.00;98222.41;5031859;28;20212;-82
2022/11/25 10:13:57;;;;;;;8.32;6.20;;;;;;;7.18;100.00;98226.94;5032201;28;20540;-84
2022/11/25 10:16:35;;;;;;;10.93;6.43;;;;;;;7.30;100.00;98231.53;5032584;28;20316;-81
2022/11/25 10:19:10;;;;;;;7.27;5.93;;;;;;;7.38;100.00;98231.94;5032668;28;20212;-77
2022/11/25 10:21:37;;;;;;;10.57;6.53;;;;;;;7.49;100.00;98226.97;5032764;28;20204;-81
2022/11/25 10:24:06;;;;;;;8.67;5.70;;;;;;;7.52;100.00;98232.91;5032602;28;20288;-81
2022/11/25 10:26:41;;;;;;;7.53;5.60;;;;;;;7.57;100.00;98235.25;5032220;28;20232;-82
2022/11/25 10:29:23;;;;;;;8.47;5.60;;;;;;;7.57;100.00;98235.25;5032467;28;20219;-82
2022/11/25 10:31:54;;;;;;;9.80;5.60;;;;;;;7.56;100.00;98225.69;5032567;28;20209;-84
2022/11/25 10:34:27;;;;;;;9.20;5.80;;;;;;;7.56;100.00;98223.03;5032244;28;20211;-81
2022/11/25 10:36:55;;;;;;;6.93;5.70;;;;;;;7.62;100.00;98226.19;5031801;28;20279;-84
2022/11/25 10:39:34;;;;;;;8.20;5.50;;;;;;;7.66;100.00;98232.97;5032156;28;20201;-83
2022/11/25 10:42:06;;;;;;;9.53;5.73;;;;;;;7.70;100.00;98233.63;5032604;28;20624;-81
2022/11/25 10:44:34;;;;;;;8.87;5.07;;;;;;;7.72;100.00;98229.16;5032279;28;20212;-83
2022/11/25 10:47:15;;;;;;;7.67;5.77;;;;;;;7.75;100.00;98234.22;5031529;28;20733;-82
2022/11/25 10:50:03;;;;;;;9.33;5.43;;;;;;;7.77;100.00;98235.00;5032119;28;20205;-82
2022/11/25 10:52:34;;;;;;;7.77;6.10;;;;;;;7.80;100.00;98233.06;5032198;28;20231;-81
2022/11/25 10:55:11;;;;;;;9.80;6.90;;;;;;;7.80;100.00;98227.78;5032034;28;20209;-83
2022/11/25 10:57:38;;;;;;;8.80;6.10;;;;;;;7.80;100.00;98229.56;5031664;28;20664;-83
2022/11/25 11:00:08;;;;;;;11.83;6.53;;;;;;;7.85;100.00;98240.69;5032913;28;20206;-81
2022/11/25 11:02:39;;;;;;;10.73;5.97;;;;;;;7.87;100.00;98236.16;5044998;28;20204;-81
2022/11/25 11:05:19;;;;;;;8.73;5.90;;;;;;;7.86;100.00;98245.00;5031714;28;20226;-81
2022/11/25 11:07:47;;;;;;;9.73;5.70;;;;;;;7.91;100.00;98243.78;5031243;28;20243;-80
2022/11/25 11:10:21;;;;;;;9.90;6.67;;;;;;;7.94;100.00;98245.41;5031699;28;20295;-81
2022/11/25 11:12:55;;;;;;;8.47;5.13;;;;;;;7.93;100.00;98248.97;5031877;28;20220;-81
2022/11/25 11:15:24;;;;;;;10.37;6.33;;;;;;;7.79;100.00;98248.91;5031812;28;20739;-81
2022/11/25 11:17:51;;;;;;;8.80;6.40;;;;;;;7.88;100.00;98232.59;5031237;28;20233;-78
2022/11/25 11:20:23;;;;;;;8.97;5.50;;;;;;;7.92;100.00;98239.41;5031481;28;20209;-83
2022/11/25 11:22:56;;;;;;;8.77;6.20;;;;;;;7.94;100.00;98243.63;5031770;28;20204;-83
2022/11/25 11:25:28;;;;;;;8.50;5.73;;;;;;;8.01;100.00;98238.84;5031724;28;20234;-81
2022/11/25 11:27:55;;;;;;;8.13;5.57;;;;;;;8.00;100.00;98239.81;5030725;28;20240;-82
2022/11/25 11:30:24;;;;;;;10.17;5.10;;;;;;;8.18;100.00;98233.47;5031516;28;20210;-80
2022/11/25 11:32:58;;;;;;;7.73;4.90;;;;;;;8.07;100.00;98247.25;5030763;28;20209;-78
2022/11/25 11:35:35;;;;;;;10.07;5.97;;;;;;;8.15;100.00;98252.94;5031219;28;20602;-79
2022/11/25 11:38:07;;;;;;;9.73;4.63;;;;;;;8.22;100.00;98245.56;5030934;28;20238;-80
2022/11/25 11:40:39;;;;;;;5.63;3.80;;;;;;;8.21;100.00;98267.56;5031407;28;20596;-78
2022/11/25 11:43:22;;;;;;;7.17;3.77;;;;;;;8.13;100.00;98277.63;5031235;28;20206;-77